APL weather

Nampula Airport
Nampula, Nampula Province, Mozambique

Public forecast

Using degrees Celsius for public forecast. Weather courtesy of forecast.io.

Current aviation weather report (METAR) for Nampula Airport

Report is more than 2 hours old.

Retrieved 2020/08/05 20:00 UTC (5 hours ago):

FQNP 052000Z 16008KT 9999 FEW010 BKN020 20/18 Q1021

Aviation forecast (TAF) for Nampula Airport

Forecast is more than 6 hours old.

Retrieved 2020/08/05 18:03 UTC (7 hours ago):

TAF FQNP 051600Z 0518/0624 20008KT 9999 FEW020 TX29/0613Z TN19/0603Z BECMG 0612/0614 14012KT BECMG 0618/0620 21008KT